Time;durP1;ratioP1;P1;durP2;ratioP2;P2;SDS_P1;SDS_P2;PMS_P1;PMS_P2;Temp;Humidity;BMP_temperature;BMP_pressure;BME280_temperature;BME280_humidity;BME280_pressure;Samples;Min_cycle;Max_cycle;Signal;HPM_P1;HPM_P2
2023/10/26 00:01:29;;;;;;;5.72;4.05;;;11.30;99.90;;;;;;5016042;28;20476;-62
2023/10/26 00:03:54;;;;;;;5.78;4.78;;;11.30;99.90;;;;;;5050361;28;20032;-63
2023/10/26 00:06:20;;;;;;;7.18;4.03;;;11.30;99.90;;;;;;5069194;28;20037;-63
2023/10/26 00:08:46;;;;;;;5.80;3.95;;;11.30;99.90;;;;;;5049710;28;20151;-63
2023/10/26 00:11:11;;;;;;;8.02;4.50;;;11.30;99.90;;;;;;5068574;28;20116;-61
2023/10/26 00:13:37;;;;;;;6.63;4.00;;;11.30;99.90;;;;;;5068000;28;20486;-67
2023/10/26 00:16:03;;;;;;;5.97;4.43;;;11.20;99.90;;;;;;5065899;28;20033;-65
2023/10/26 00:18:29;;;;;;;6.78;4.63;;;11.20;99.90;;;;;;5062753;28;20109;-66
2023/10/26 00:21:00;;;;;;;5.97;4.40;;;11.20;99.90;;;;;;5062610;28;20037;-62
2023/10/26 00:23:26;;;;;;;4.72;3.70;;;11.20;99.90;;;;;;5064382;28;20033;-62
2023/10/26 00:25:52;;;;;;;5.43;4.00;;;11.20;99.90;;;;;;5049824;28;20368;-62
2023/10/26 00:28:18;;;;;;;8.93;4.45;;;11.20;99.90;;;;;;5068013;28;20033;-62
2023/10/26 00:30:44;;;;;;;7.78;4.57;;;11.20;99.90;;;;;;5067589;28;20119;-61
2023/10/26 00:33:09;;;;;;;6.45;4.80;;;11.20;99.90;;;;;;5068148;28;20040;-61
2023/10/26 00:35:35;;;;;;;7.22;4.85;;;11.20;99.90;;;;;;5044730;28;20049;-62
2023/10/26 00:38:01;;;;;;;6.18;4.35;;;11.20;99.90;;;;;;5044388;28;20051;-61
2023/10/26 00:40:27;;;;;;;5.57;4.20;;;11.20;99.90;;;;;;5071110;28;20037;-62
2023/10/26 00:43:04;;;;;;;8.55;4.85;;;11.20;99.90;;;;;;5067060;28;20037;-62
2023/10/26 00:45:34;;;;;;;6.82;4.20;;;11.20;99.90;;;;;;5071317;28;20061;-63
2023/10/26 00:48:00;;;;;;;8.60;4.80;;;11.10;99.90;;;;;;5065318;28;20139;-62
2023/10/26 00:50:27;;;;;;;6.72;4.40;;;11.10;99.90;;;;;;5054886;28;20388;-62
2023/10/26 00:52:54;;;;;;;6.55;4.32;;;11.10;99.90;;;;;;5065188;28;20249;-62
2023/10/26 00:55:21;;;;;;;6.47;4.18;;;;;;;;;;5051835;28;20539;-62
2023/10/26 00:57:47;;;;;;;7.30;4.60;;;;;;;;;;5072110;28;20044;-62
2023/10/26 01:00:13;;;;;;;8.85;4.97;;;;;;;;;;5071114;28;20480;-62
2023/10/26 01:02:40;;;;;;;6.32;4.28;;;;;;;;;;5054033;28;20452;-62
2023/10/26 01:05:06;;;;;;;5.43;3.97;;;;;;;;;;5069986;28;20499;-63
2023/10/26 01:07:32;;;;;;;8.80;3.75;;;;;;;;;;5067255;28;20039;-62
2023/10/26 01:09:58;;;;;;;6.78;5.10;;;;;;;;;;5068312;28;20112;-61
2023/10/26 01:12:25;;;;;;;7.45;4.07;;;;;;;;;;5068064;28;20033;-63
2023/10/26 01:14:52;;;;;;;6.10;4.53;;;;;;;;;;5069746;28;20040;-62
2023/10/26 01:17:18;;;;;;;6.68;4.78;;;;;;;;;;5063987;28;20044;-61
2023/10/26 01:19:47;;;;;;;5.22;4.20;;;;;;;;;;5047995;28;20055;-62
2023/10/26 01:22:13;;;;;;;7.45;4.85;;;;;;;;;;5071507;28;20158;-61
2023/10/26 01:24:40;;;;;;;6.03;4.50;;;;;;;;;;5053059;28;20032;-61
2023/10/26 01:27:06;;;;;;;5.55;4.07;;;;;;;;;;5068498;28;20044;-62
2023/10/26 01:29:33;;;;;;;6.75;4.30;;;;;;;;;;5052614;28;20051;-64
2023/10/26 01:31:59;;;;;;;5.68;4.18;;;;;;;;;;5071086;28;20110;-62
2023/10/26 01:34:26;;;;;;;6.80;4.88;;;;;;;;;;5070994;28;20037;-62
2023/10/26 01:36:52;;;;;;;9.40;5.32;;;;;;;;;;5073076;28;20082;-63
2023/10/26 01:39:18;;;;;;;7.85;4.57;;;;;;;;;;5065225;28;20051;-64
2023/10/26 01:41:48;;;;;;;5.35;4.13;;;;;;;;;;5071769;28;20111;-62
2023/10/26 01:44:15;;;;;;;6.13;4.60;;;;;;;;;;5066084;28;20048;-63
2023/10/26 01:46:41;;;;;;;6.43;4.47;;;;;;;;;;5052239;28;20362;-62
2023/10/26 01:49:07;;;;;;;9.15;4.70;;;;;;;;;;5051096;28;20063;-62
2023/10/26 01:51:33;;;;;;;6.28;4.50;;;;;;;;;;5067090;28;20082;-63
2023/10/26 01:53:59;;;;;;;6.63;4.22;;;;;;;;;;5070130;28;20032;-62
2023/10/26 01:56:25;;;;;;;6.47;4.40;;;;;;;;;;5070168;28;20041;-62
2023/10/26 01:58:51;;;;;;;5.68;4.22;;;;;;;;;;5070485;28;20399;-62
2023/10/26 02:01:17;;;;;;;5.93;4.68;;;;;;;;;;5071079;28;20074;-62
2023/10/26 02:03:44;;;;;;;6.47;4.80;;;;;;;;;;5070966;28;20085;-62
2023/10/26 02:06:10;;;;;;;5.90;4.45;;;;;;;;;;5070595;28;20459;-63
2023/10/26 02:08:36;;;;;;;5.60;3.90;;;;;;;;;;5070459;28;20039;-63
2023/10/26 02:11:02;;;;;;;6.32;4.35;;;;;;;;;;5065217;28;20231;-61
2023/10/26 02:13:28;;;;;;;6.57;4.40;;;;;;;;;;5041379;28;20382;-61
2023/10/26 02:15:54;;;;;;;6.25;4.15;;;;;;;;;;5058513;28;20048;-62
2023/10/26 02:18:20;;;;;;;5.78;4.05;;;;;;;;;;5065595;28;20047;-62
2023/10/26 02:20:46;;;;;;;6.68;4.75;;;;;;;;;;5073223;28;20424;-62
2023/10/26 02:23:12;;;;;;;6.78;4.18;;;;;;;;;;5071906;28;20040;-63
2023/10/26 02:25:39;;;;;;;6.03;4.35;;;;;;;;;;5048547;28;20484;-62
2023/10/26 02:28:05;;;;;;;7.10;4.28;;;;;;;;;;5051709;28;20047;-62
2023/10/26 02:30:31;;;;;;;7.28;4.45;;;;;;;;;;5048617;28;20037;-63
2023/10/26 02:32:57;;;;;;;6.18;4.60;;;;;;;;;;5064296;28;20492;-63
2023/10/26 02:35:23;;;;;;;4.90;3.95;;;;;;;;;;5070726;28;20033;-62
2023/10/26 02:37:49;;;;;;;5.25;3.53;;;;;;;;;;5069970;28;20032;-62
2023/10/26 02:40:15;;;;;;;7.38;4.60;;;;;;;;;;5051394;28;20048;-62
2023/10/26 02:42:41;;;;;;;7.35;5.18;;;;;;;;;;5068105;28;20500;-62
2023/10/26 02:45:08;;;;;;;5.65;4.53;;;;;;;;;;5050228;28;20519;-62
2023/10/26 02:47:34;;;;;;;5.60;4.28;;;;;;;;;;5058234;28;20036;-63
2023/10/26 02:50:00;;;;;;;6.78;4.38;;;;;;;;;;5059954;28;20135;-62
2023/10/26 02:52:27;;;;;;;5.75;4.22;;;;;;;;;;5057062;28;20044;-62
2023/10/26 02:54:54;;;;;;;5.68;4.43;;;;;;;;;;5069364;28;20072;-62
2023/10/26 02:57:20;;;;;;;6.07;4.45;;;;;;;;;;5052623;28;20045;-62
2023/10/26 02:59:46;;;;;;;7.35;4.72;;;;;;;;;;5068417;28;20044;-62
2023/10/26 03:02:12;;;;;;;7.68;4.45;;;;;;;;;;5068767;28;20059;-63
2023/10/26 03:04:39;;;;;;;7.00;5.22;;;;;;;;;;5065618;28;20040;-62
2023/10/26 03:07:05;;;;;;;5.75;4.97;;;;;;;;;;5069744;28;20036;-62
2023/10/26 03:09:31;;;;;;;6.13;4.57;;;;;;;;;;5051151;28;20044;-62
2023/10/26 03:11:57;;;;;;;5.78;4.22;;;;;;;;;;5068921;28;20119;-61
2023/10/26 03:14:23;;;;;;;6.50;4.20;;;;;;;;;;5045510;28;20476;-62
2023/10/26 03:16:50;;;;;;;5.68;4.63;;;;;;;;;;5069171;28;20106;-62
2023/10/26 03:19:16;;;;;;;6.45;4.35;;;;;;;;;;5045508;28;20052;-63
2023/10/26 03:21:42;;;;;;;6.65;4.75;;;;;;;;;;5068732;28;20524;-62
2023/10/26 03:24:08;;;;;;;6.13;5.13;;;;;;;;;;5066815;28;20111;-62
2023/10/26 03:26:34;;;;;;;6.15;4.57;;;;;;;;;;5027972;28;20467;-64
2023/10/26 03:29:00;;;;;;;5.43;4.35;;;;;;;;;;5050360;28;20044;-62
2023/10/26 03:31:27;;;;;;;5.57;4.13;;;;;;;;;;5069404;28;20098;-62
2023/10/26 03:33:53;;;;;;;5.97;4.78;;;;;;;;;;5066626;28;20541;-62
2023/10/26 03:36:20;;;;;;;8.50;5.07;;;;;;;;;;5069000;28;20036;-62
2023/10/26 03:38:46;;;;;;;5.80;5.00;;;;;;;;;;5068488;28;20043;-63
2023/10/26 03:41:13;;;;;;;5.95;4.53;;;;;;;;;;5068498;28;20048;-62
2023/10/26 03:43:39;;;;;;;5.38;4.25;;;;;;;;;;5068235;28;20029;-62
2023/10/26 03:46:06;;;;;;;5.80;4.28;;;;;;;;;;5058740;28;20542;-63
2023/10/26 03:48:34;;;;;;;5.65;4.30;;;;;;;;;;5067560;28;20043;-62
2023/10/26 03:51:00;;;;;;;5.45;4.22;;;;;;;;;;5051865;28;20407;-61
2023/10/26 03:53:26;;;;;;;5.90;4.93;;;;;;;;;;5067243;28;20484;-62
2023/10/26 03:55:55;;;;;;;5.88;4.15;;;;;;;;;;5057963;28;20063;-62
2023/10/26 03:58:21;;;;;;;5.88;4.22;;;;;;;;;;5045607;28;20036;-63
2023/10/26 04:00:47;;;;;;;5.13;4.43;;;;;;;;;;5058240;28;20045;-63
2023/10/26 04:03:14;;;;;;;4.93;4.43;;;;;;;;;;5059052;28;20492;-63
2023/10/26 04:05:40;;;;;;;6.03;4.63;;;;;;;;;;5058445;28;20049;-62
2023/10/26 04:08:07;;;;;;;5.93;4.65;;;;;;;;;;5052436;28;20033;-63
2023/10/26 04:10:34;;;;;;;4.90;4.20;;;;;;;;;;5050716;28;20500;-63
2023/10/26 04:13:00;;;;;;;5.53;5.03;;;;;;;;;;5063871;28;20052;-61
2023/10/26 04:15:26;;;;;;;6.85;4.78;;;;;;;;;;5062911;28;20123;-61
2023/10/26 04:17:52;;;;;;;5.22;4.72;;;;;;;;;;5055018;28;20153;-62
2023/10/26 04:20:20;;;;;;;5.45;4.60;;;;;;;;;;5058845;28;20036;-62
2023/10/26 04:22:47;;;;;;;6.10;4.65;;;;;;;;;;5069413;28;20045;-61
2023/10/26 04:25:13;;;;;;;5.45;4.28;;;;;;;;;;5049212;28;20105;-62
2023/10/26 04:27:39;;;;;;;6.00;4.90;;;;;;;;;;5062811;28;20388;-62
2023/10/26 04:30:06;;;;;;;8.50;4.28;;;;;;;;;;5059247;28;20040;-62
2023/10/26 04:32:32;;;;;;;5.70;4.82;;;;;;;;;;5041780;28;20448;-62
2023/10/26 04:34:59;;;;;;;5.03;3.97;;;;;;;;;;5067925;28;20295;-62
2023/10/26 04:37:27;;;;;;;6.15;5.07;;;;;;;;;;5067869;28;20462;-62
2023/10/26 04:39:53;;;;;;;5.88;4.35;;;;;;;;;;5068017;28;20089;-62
2023/10/26 04:42:19;;;;;;;5.25;4.00;;;;;;;;;;5050172;28;20440;-61
2023/10/26 04:44:45;;;;;;;5.00;4.20;;;11.10;99.90;;;;;;5067388;28;20068;-61
2023/10/26 04:47:11;;;;;;;5.18;4.25;;;10.40;99.90;;;;;;5056999;28;20076;-63
2023/10/26 04:49:37;;;;;;;4.95;4.45;;;10.40;99.90;;;;;;5055388;28;20044;-61
2023/10/26 04:52:03;;;;;;;4.93;3.75;;;10.40;99.90;;;;;;5049862;28;20049;-61
2023/10/26 04:54:29;;;;;;;5.55;4.05;;;10.40;99.90;;;;;;5068577;28;20051;-62
2023/10/26 04:56:55;;;;;;;4.68;3.72;;;10.40;99.90;;;;;;5062658;28;20036;-63
2023/10/26 04:59:21;;;;;;;5.10;4.43;;;10.30;99.90;;;;;;5067726;28;20078;-62
2023/10/26 05:01:47;;;;;;;4.82;4.28;;;;;;;;;;5050027;28;20120;-62
2023/10/26 05:04:13;;;;;;;5.70;4.35;;;;;;;;;;5067760;28;20091;-62
2023/10/26 05:06:39;;;;;;;5.45;4.47;;;;;;;;;;5033166;28;20128;-62
2023/10/26 05:09:05;;;;;;;6.07;4.28;;;;;;;;;;5068180;28;20047;-63
2023/10/26 05:11:31;;;;;;;5.15;4.40;;;;;;;;;;5067047;28;20488;-62
2023/10/26 05:13:58;;;;;;;6.20;4.75;;;;;;;;;;5059711;28;20063;-62
2023/10/26 05:16:24;;;;;;;5.40;4.85;;;;;;;;;;5064677;28;20127;-62
2023/10/26 05:18:50;;;;;;;4.93;4.00;;;;;;;;;;5067025;28;20040;-62
2023/10/26 05:21:16;;;;;;;5.38;4.25;;;;;;;;;;5048810;28;20049;-62
2023/10/26 05:23:43;;;;;;;6.65;4.40;;;;;;;;;;5048682;28;20593;-61
2023/10/26 05:26:10;;;;;;;5.30;4.20;;;;;;;;;;5054250;28;20048;-62
2023/10/26 05:28:36;;;;;;;4.70;4.20;;;;;;;;;;5072292;28;20093;-62
2023/10/26 05:31:02;;;;;;;5.22;3.97;;;;;;;;;;5071027;28;20106;-62
2023/10/26 05:33:28;;;;;;;5.38;4.35;;;;;;;;;;5068295;28;20043;-63
2023/10/26 05:35:55;;;;;;;6.75;4.47;;;;;;;;;;5068453;28;20357;-62
2023/10/26 05:38:21;;;;;;;5.75;4.72;;;;;;;;;;5067709;28;20763;-63
2023/10/26 05:40:55;;;;;;;4.18;3.45;;;;;;;;;;5070594;28;20547;-63
2023/10/26 05:43:22;;;;;;;6.00;4.43;;;;;;;;;;5071627;28;20037;-62
2023/10/26 05:45:48;;;;;;;5.68;4.82;;;;;;;;;;5074655;28;20075;-62
2023/10/26 05:48:16;;;;;;;5.07;4.38;;;;;;;;;;5070561;28;20040;-62
2023/10/26 05:50:43;;;;;;;5.43;4.15;;;;;;;;;;5051902;28;20051;-61
2023/10/26 05:53:10;;;;;;;5.00;4.18;;;;;;;;;;5072336;28;20075;-62
2023/10/26 05:55:36;;;;;;;5.47;4.40;;;;;;;;;;5033593;28;20503;-62
2023/10/26 05:58:03;;;;;;;6.63;4.32;;;;;;;;;;5065293;28;20037;-61
2023/10/26 06:00:29;;;;;;;3.95;3.30;;;;;;;;;;5032153;28;20497;-62
2023/10/26 06:02:55;;;;;;;4.43;3.45;;;;;;;;;;5069359;28;20082;-62
2023/10/26 06:05:22;;;;;;;5.32;4.13;;;;;;;;;;5067991;28;20036;-62
2023/10/26 06:07:48;;;;;;;4.68;3.83;;;;;;;;;;5053557;28;20045;-63
2023/10/26 06:10:15;;;;;;;4.18;3.67;;;;;;;;;;5073788;28;20063;-63
2023/10/26 06:12:41;;;;;;;4.93;3.85;;;;;;;;;;5077523;28;20444;-62
2023/10/26 06:15:08;;;;;;;6.15;3.67;;;;;;;;;;5046509;28;20504;-62
2023/10/26 06:17:34;;;;;;;5.93;4.22;;;;;;;;;;5048597;28;20127;-62
2023/10/26 06:20:00;;;;;;;5.32;4.13;;;;;;;;;;5069410;28;20143;-62
2023/10/26 06:22:26;;;;;;;5.85;4.55;;;;;;;;;;5061070;28;20504;-63
2023/10/26 06:24:53;;;;;;;4.20;3.38;;;;;;;;;;5067894;28;20511;-62
2023/10/26 06:27:19;;;;;;;6.53;4.55;;;;;;;;;;5050581;28;20051;-62
2023/10/26 06:29:45;;;;;;;6.20;4.10;;;;;;;;;;5047036;28;20072;-62
2023/10/26 06:32:12;;;;;;;6.35;4.60;;;;;;;;;;5051272;28;20045;-63
2023/10/26 06:34:38;;;;;;;6.03;4.43;;;;;;;;;;5070035;28;20435;-61
2023/10/26 06:37:04;;;;;;;5.78;4.10;;;;;;;;;;5071114;28;20040;-62
2023/10/26 06:39:31;;;;;;;5.35;4.07;;;;;;;;;;5068744;28;20036;-62
2023/10/26 06:41:57;;;;;;;4.93;3.80;;;;;;;;;;5071536;28;20040;-62
2023/10/26 06:44:24;;;;;;;4.88;3.92;;;;;;;;;;5071350;28;20045;-63
2023/10/26 06:46:50;;;;;;;4.70;3.55;;;;;;;;;;5070503;28;20041;-62
2023/10/26 06:49:16;;;;;;;5.70;4.15;;;;;;;;;;5065499;28;20048;-63
2023/10/26 06:51:42;;;;;;;4.38;3.83;;;;;;;;;;5049856;28;20202;-63
2023/10/26 06:54:09;;;;;;;5.13;4.07;;;;;;;;;;5012460;28;20045;-62
2023/10/26 06:56:36;;;;;;;6.57;3.80;;;;;;;;;;5065192;28;20129;-63
2023/10/26 06:59:02;;;;;;;4.72;3.83;;;;;;;;;;5062246;28;20040;-62
2023/10/26 07:01:28;;;;;;;3.95;3.45;;;;;;;;;;5063377;28;20037;-62
2023/10/26 07:03:54;;;;;;;5.38;3.95;;;;;;;;;;5057002;28;20036;-63
2023/10/26 07:06:21;;;;;;;5.30;4.03;;;;;;;;;;5065291;28;20060;-62
2023/10/26 07:08:47;;;;;;;4.45;3.90;;;;;;;;;;5065182;28;20503;-62
2023/10/26 07:11:14;;;;;;;4.43;3.83;;;;;;;;;;5070534;28;20051;-62
2023/10/26 07:13:40;;;;;;;5.25;3.75;;;;;;;;;;5068907;28;20039;-62
2023/10/26 07:16:07;;;;;;;4.72;4.20;;;;;;;;;;5065748;28;20515;-62
2023/10/26 07:18:34;;;;;;;4.88;3.90;;;;;;;;;;5046179;28;20072;-62
2023/10/26 07:21:04;;;;;;;4.82;3.83;;;;;;;;;;5067854;28;20333;-63
2023/10/26 07:23:32;;;;;;;4.45;3.50;;;;;;;;;;5066664;28;20049;-62
2023/10/26 07:25:58;;;;;;;5.13;4.18;;;;;;;;;;5063773;28;20110;-62
2023/10/26 07:28:24;;;;;;;5.38;4.32;;;;;;;;;;5067612;28;20039;-63
2023/10/26 07:30:51;;;;;;;4.63;3.30;;;;;;;;;;5068348;28;20472;-63
2023/10/26 07:33:20;;;;;;;4.63;4.03;;;;;;;;;;5071303;28;20048;-63
2023/10/26 07:35:55;;;;;;;4.60;3.50;;;;;;;;;;5074683;28;20147;-63
2023/10/26 07:38:24;;;;;;;5.22;4.03;;;;;;;;;;5069192;28;20037;-63
2023/10/26 07:40:50;;;;;;;5.53;3.90;;;;;;;;;;5051687;28;20184;-63
2023/10/26 07:43:17;;;;;;;5.18;4.32;;;;;;;;;;5068533;28;20056;-62
2023/10/26 07:45:43;;;;;;;5.32;3.72;;;;;;;;;;5067468;28;20036;-62
2023/10/26 07:48:09;;;;;;;5.15;4.15;;;;;;;;;;5064779;28;20384;-68
2023/10/26 07:50:35;;;;;;;4.38;3.35;;;;;;;;;;5068076;28;20089;-63
2023/10/26 07:53:01;;;;;;;4.70;4.10;;;;;;;;;;5067857;28;20044;-65
2023/10/26 07:55:28;;;;;;;5.18;3.45;;;;;;;;;;5071830;28;20048;-63
2023/10/26 07:57:54;;;;;;;4.85;3.92;;;;;;;;;;5069113;28;20036;-61
2023/10/26 08:00:21;;;;;;;4.75;3.63;;;;;;;;;;5070860;28;20076;-63
2023/10/26 08:02:47;;;;;;;5.80;4.18;;;;;;;;;;5069590;28;20048;-63
2023/10/26 08:05:15;;;;;;;3.67;3.10;;;;;;;;;;5073346;28;20143;-63
2023/10/26 08:07:41;;;;;;;4.60;3.53;;;;;;;;;;5075630;28;20040;-63
2023/10/26 08:10:11;;;;;;;5.03;3.67;;;;;;;;;;5071375;28;20063;-63
2023/10/26 08:12:38;;;;;;;4.80;3.63;;;;;;;;;;5067203;28;20534;-63
2023/10/26 08:15:05;;;;;;;4.60;3.28;;;;;;;;;;5074478;28;20039;-62
2023/10/26 08:17:35;;;;;;;5.03;3.45;;;;;;;;;;5049019;28;20373;-63
2023/10/26 08:20:09;;;;;;;4.30;3.25;;;;;;;;;;5063331;28;20127;-63
2023/10/26 08:22:35;;;;;;;4.75;3.53;;;;;;;;;;5017511;28;20059;-62
2023/10/26 08:25:06;;;;;;;5.55;4.53;;;;;;;;;;5057604;28;20040;-63
2023/10/26 08:27:35;;;;;;;6.63;4.18;;;;;;;;;;5066876;28;20036;-63
2023/10/26 08:30:02;;;;;;;6.10;4.30;;;;;;;;;;5062584;28;20041;-62
2023/10/26 08:32:30;;;;;;;6.30;3.88;;;;;;;;;;5073480;28;20071;-63
2023/10/26 08:34:56;;;;;;;5.25;4.05;;;;;;;;;;5066866;28;20108;-62
2023/10/26 08:37:23;;;;;;;7.72;4.78;;;;;;;;;;5068723;28;20036;-63
2023/10/26 08:39:50;;;;;;;4.10;3.30;;;;;;;;;;5064294;28;20373;-63
2023/10/26 08:42:18;;;;;;;6.32;4.35;;;;;;;;;;5067556;28;20051;-63
2023/10/26 08:44:45;;;;;;;5.38;4.18;;;;;;;;;;5068598;28;20147;-62
2023/10/26 08:47:14;;;;;;;6.60;4.43;;;;;;;;;;5058515;28;20036;-63
2023/10/26 08:49:43;;;;;;;5.03;3.90;;;;;;;;;;5068246;28;20527;-63
2023/10/26 08:52:10;;;;;;;6.70;3.92;;;;;;;;;;5067168;28;20045;-63
2023/10/26 08:54:37;;;;;;;6.82;4.55;;;;;;;;;;5071963;28;20041;-62
2023/10/26 08:57:12;;;;;;;6.15;4.07;;;;;;;;;;5067797;28;20158;-61
2023/10/26 08:59:38;;;;;;;7.07;3.97;;;;;;;;;;5066540;28;20046;-62
2023/10/26 09:02:05;;;;;;;5.22;3.88;;;;;;;;;;5073514;28;20044;-62
2023/10/26 09:04:32;;;;;;;7.47;4.80;;;;;;;;;;5076566;28;20637;-62
2023/10/26 09:06:59;;;;;;;7.05;5.10;;;;;;;;;;5055853;28;20041;-63
2023/10/26 09:09:25;;;;;;;5.97;5.30;;;;;;;;;;5054478;28;20041;-62
2023/10/26 09:11:52;;;;;;;6.82;5.07;;;;;;;;;;5074901;28;20040;-62
2023/10/26 09:14:20;;;;;;;7.53;5.43;;;;;;;;;;5073788;28;20040;-63
2023/10/26 09:16:47;;;;;;;6.88;5.07;;;;;;;;;;5053882;28;20036;-62
2023/10/26 09:19:14;;;;;;;7.45;5.35;;;;;;;;;;5061351;28;20048;-62
2023/10/26 09:21:53;;;;;;;6.97;5.18;;;;;;;;;;5072428;28;20154;-62
2023/10/26 09:24:20;;;;;;;8.63;5.90;;;;;;;;;;5067914;28;20044;-60
2023/10/26 09:26:47;;;;;;;9.93;6.55;;;;;;;;;;5068501;28;20037;-62
2023/10/26 09:29:13;;;;;;;7.35;5.90;;;;;;;;;;5067468;28;20119;-62
2023/10/26 09:31:58;;;;;;;8.20;6.65;;;;;;;;;;5031509;28;20448;-62
2023/10/26 09:34:25;;;;;;;9.27;6.85;;;;;;;;;;5053580;28;20039;-64
2023/10/26 09:37:00;;;;;;;12.38;7.47;;;;;;;;;;5068503;28;20051;-63
2023/10/26 09:39:31;;;;;;;8.85;7.13;;;;;;;;;;5068218;28;20404;-63
2023/10/26 09:41:58;;;;;;;9.27;6.93;;;;;;;;;;5075119;28;20539;-61
2023/10/26 09:44:24;;;;;;;10.18;6.68;;;;;;;;;;5067423;28;20458;-62
2023/10/26 09:46:50;;;;;;;11.73;8.35;;;;;;;;;;5066520;28;20512;-62
2023/10/26 09:49:17;;;;;;;9.00;6.95;;;;;;;;;;5067883;28;20079;-62
2023/10/26 09:51:46;;;;;;;8.25;6.85;;;;;;;;;;5049410;28;20051;-62
2023/10/26 09:54:13;;;;;;;9.68;7.07;;;;;;;;;;5064784;28;20060;-61
2023/10/26 09:56:45;;;;;;;9.85;6.53;;;;;;;;;;5068425;28;20083;-63
2023/10/26 09:59:12;;;;;;;9.75;7.10;;;;;;;;;;5059926;28;20567;-62
2023/10/26 10:01:39;;;;;;;11.77;6.88;;;;;;;;;;5065003;28;20475;-61
2023/10/26 10:04:10;;;;;;;11.48;6.97;;;;;;;;;;5062164;28;20132;-62
2023/10/26 10:06:49;;;;;;;9.52;6.93;;;;;;;;;;5064879;28;20205;-62
2023/10/26 10:09:20;;;;;;;8.65;6.60;;;;;;;;;;5064581;28;20040;-62
2023/10/26 10:11:47;;;;;;;10.75;6.45;;;;;;;;;;5062765;28;20071;-62
2023/10/26 10:14:32;;;;;;;8.52;6.55;;;;;;;;;;5039179;28;20109;-63
2023/10/26 10:16:58;;;;;;;11.27;7.80;;;;;;;;;;5065256;28;20127;-63
2023/10/26 10:19:26;;;;;;;14.60;8.55;;;;;;;;;;5061286;28;20052;-63
2023/10/26 10:21:52;;;;;;;9.45;6.75;;;;;;;;;;5059802;28;20110;-63
2023/10/26 10:24:37;;;;;;;9.57;7.63;;;;;;;;;;5064191;28;20037;-63
2023/10/26 10:27:10;;;;;;;9.98;7.40;;;;;;;;;;5060735;28;20040;-63
2023/10/26 10:29:36;;;;;;;;;;;;;;;;;;5062200;28;20100;-62
2023/10/26 10:32:03;;;;;;;11.20;6.93;;;;;;;;;;5062353;28;20065;-63
2023/10/26 10:34:30;;;;;;;9.98;7.30;;;;;;;;;;5066781;28;20593;-62
2023/10/26 10:37:17;;;;;;;7.38;6.38;;;;;;;;;;5064150;28;20053;-62
2023/10/26 10:40:20;;;;;;;11.35;8.00;;;;;;;;;;5066969;28;20078;-62
2023/10/26 10:42:46;;;;;;;9.50;7.45;;;;;;;;;;5003287;28;20113;-63
2023/10/26 10:45:12;;;;;;;8.55;6.75;;;;;;;;;;5045591;28;20049;-63
2023/10/26 10:47:39;;;;;;;9.77;7.05;;;;;;;;;;5065020;28;20435;-62
2023/10/26 10:50:18;;;;;;;10.27;7.70;;;10.30;99.90;;;;;;5044487;28;20440;-65
2023/10/26 10:52:45;;;;;;;8.80;6.90;;;12.00;99.90;;;;;;5055360;28;20040;-63
2023/10/26 10:55:11;;;;;;;10.38;7.55;;;12.00;99.90;;;;;;5063209;28;20064;-62
2023/10/26 10:57:55;;;;;;;9.73;6.88;;;12.10;99.90;;;;;;5062537;28;20044;-62
2023/10/26 11:00:21;;;;;;;11.50;7.68;;;12.10;99.90;;;;;;5057126;28;20517;-63
2023/10/26 11:02:49;;;;;;;12.48;7.70;;;12.10;99.90;;;;;;5068323;28;20357;-63
2023/10/26 11:05:16;;;;;;;10.27;7.18;;;12.20;99.90;;;;;;5043912;28;20040;-62
2023/10/26 11:07:42;;;;;;;12.38;7.57;;;;;;;;;;5061600;28;20045;-62
2023/10/26 11:10:09;;;;;;;13.73;8.68;;;;;;;;;;5064625;28;20043;-62
2023/10/26 11:12:35;;;;;;;11.25;8.23;;;;;;;;;;5065013;28;20325;-63
2023/10/26 11:15:01;;;;;;;11.38;7.00;;;;;;;;;;5064718;28;20468;-63
2023/10/26 11:17:29;;;;;;;9.27;7.00;;;;;;;;;;5060902;28;20047;-63
2023/10/26 11:19:56;;;;;;;10.25;7.75;;;;;;;;;;5062095;28;20033;-62
2023/10/26 11:22:23;;;;;;;9.48;7.45;;;;;;;;;;5062825;28;20043;-62
2023/10/26 11:24:49;;;;;;;8.18;7.10;;;;;;;;;;5063621;28;20040;-62
2023/10/26 11:27:17;;;;;;;10.80;6.95;;;;;;;;;;5063891;28;20083;-63
2023/10/26 11:29:44;;;;;;;9.55;6.85;;;;;;;;;;5060635;28;20111;-62
2023/10/26 11:32:27;;;;;;;10.10;7.38;;;;;;;;;;5063411;28;20557;-62
2023/10/26 11:35:06;;;;;;;10.20;6.90;;;;;;;;;;5066267;28;20047;-61
2023/10/26 11:37:35;;;;;;;7.57;5.93;;;;;;;;;;5065997;28;20072;-62
2023/10/26 11:40:02;;;;;;;8.07;6.63;;;;;;;;;;5058009;28;20139;-63
2023/10/26 11:42:50;;;;;;;9.50;7.05;;;12.20;99.90;;;;;;5063635;28;20068;-62
2023/10/26 11:45:17;;;;;;;9.50;7.18;;;13.50;99.90;;;;;;5051654;28;20041;-62
2023/10/26 11:47:48;;;;;;;8.38;5.75;;;;;;;;;;5056799;28;20575;-62
2023/10/26 11:50:20;;;;;;;10.18;6.80;;;;;;;;;;5061603;28;20051;-63
2023/10/26 11:52:46;;;;;;;7.25;6.15;;;13.50;99.90;;;;;;5063330;28;20123;-62
2023/10/26 11:55:14;;;;;;;8.20;6.60;;;;;;;;;;5064184;28;20045;-62
2023/10/26 11:57:41;;;;;;;9.23;6.18;;;;;;;;;;5058155;28;20080;-62
2023/10/26 12:00:07;;;;;;;9.60;6.40;;;;;;;;;;5060349;28;20036;-63
2023/10/26 12:02:34;;;;;;;10.52;6.25;;;;;;;;;;5059189;28;20139;-62
2023/10/26 12:05:00;;;;;;;9.48;6.47;;;;;;;;;;5056897;28;20043;-62
2023/10/26 12:07:27;;;;;;;8.20;6.22;;;;;;;;;;5057333;28;20044;-62
2023/10/26 12:09:53;;;;;;;8.45;6.38;;;;;;;;;;5057766;28;20442;-62
2023/10/26 12:12:20;;;;;;;8.45;7.28;;;;;;;;;;5064653;28;20048;-61
2023/10/26 12:14:47;;;;;;;8.52;6.97;;;;;;;;;;5062275;28;20059;-61
2023/10/26 12:17:13;;;;;;;9.05;6.70;;;;;;;;;;5063458;28;20060;-66
2023/10/26 12:19:39;;;;;;;8.27;6.40;;;14.40;99.90;;;;;;5042165;28;20055;-65
2023/10/26 12:22:05;;;;;;;9.30;6.07;;;;;;;;;;5063462;28;20054;-62
2023/10/26 12:24:32;;;;;;;9.10;6.90;;;;;;;;;;5063448;28;20395;-62
2023/10/26 12:27:00;;;;;;;7.53;5.78;;;;;;;;;;5045659;28;20334;-62
2023/10/26 12:29:26;;;;;;;8.40;6.40;;;15.00;99.90;;;;;;5061673;28;20683;-63
2023/10/26 12:31:53;;;;;;;9.13;6.30;;;15.60;99.90;;;;;;5060696;28;20052;-63
2023/10/26 12:34:19;;;;;;;11.07;6.97;;;;;;;;;;5044370;28;20036;-62
2023/10/26 12:36:45;;;;;;;7.25;5.50;;;15.80;99.90;;;;;;5063703;28;20040;-63
2023/10/26 12:39:11;;;;;;;8.02;6.15;;;16.00;99.90;;;;;;5062890;28;20135;-63
2023/10/26 12:41:37;;;;;;;8.35;6.47;;;16.00;99.90;;;;;;5045757;28;20151;-63
2023/10/26 12:44:03;;;;;;;8.05;6.10;;;16.10;99.90;;;;;;5045842;28;20162;-61
2023/10/26 12:46:29;;;;;;;7.70;6.15;;;16.10;99.90;;;;;;5060306;28;20102;-61
2023/10/26 12:48:55;;;;;;;7.70;6.60;;;16.10;99.90;;;;;;5064407;28;20028;-61
2023/10/26 12:51:21;;;;;;;9.75;6.80;;;16.10;99.90;;;;;;5057796;28;20049;-62
2023/10/26 12:53:46;;;;;;;9.63;6.60;;;16.00;99.90;;;;;;5062876;28;20044;-62
2023/10/26 12:56:12;;;;;;;12.48;7.68;;;16.00;99.90;;;;;;5061323;28;20082;-61
2023/10/26 12:58:38;;;;;;;10.95;7.03;;;16.10;99.90;;;;;;5057193;28;20157;-61
2023/10/26 13:01:04;;;;;;;11.00;6.15;;;16.20;99.90;;;;;;5043443;28;20090;-61
2023/10/26 13:03:30;;;;;;;9.82;6.75;;;;;;;;;;5064813;28;20427;-62
2023/10/26 13:05:55;;;;;;;10.38;6.05;;;16.30;99.90;;;;;;5064404;28;20486;-62
2023/10/26 13:08:22;;;;;;;7.85;5.53;;;;;;;;;;5060947;28;20043;-62
2023/10/26 13:10:47;;;;;;;7.38;5.10;;;16.60;99.90;;;;;;5046182;28;20504;-63
2023/10/26 13:13:13;;;;;;;7.30;5.72;;;16.90;99.90;;;;;;5063210;28;20068;-62
2023/10/26 13:15:40;;;;;;;7.32;5.90;;;;;;;;;;5060774;28;20467;-63
2023/10/26 13:18:06;;;;;;;7.25;5.65;;;;;;;;;;5047571;28;20135;-63
2023/10/26 13:20:32;;;;;;;6.03;4.90;;;;;;;;;;5064265;28;20381;-62
2023/10/26 13:22:59;;;;;;;5.88;5.03;;;;;;;;;;5061679;28;20530;-63
2023/10/26 13:25:25;;;;;;;5.75;4.43;;;;;;;;;;5063200;28;20153;-62
2023/10/26 13:27:52;;;;;;;5.90;5.07;;;;;;;;;;5063918;28;20350;-62
2023/10/26 13:30:18;;;;;;;7.00;5.32;;;;;;;;;;5046313;28;20045;-63
2023/10/26 13:32:46;;;;;;;7.03;5.63;;;;;;;;;;5042969;28;20036;-62
2023/10/26 13:35:13;;;;;;;6.38;5.28;;;;;;;;;;5064446;28;20879;-62
2023/10/26 13:37:39;;;;;;;7.78;4.78;;;;;;;;;;5063043;28;20048;-62
2023/10/26 13:40:06;;;;;;;7.53;5.40;;;;;;;;;;5067162;28;20403;-62
2023/10/26 13:42:32;;;;;;;5.95;5.03;;;;;;;;;;5065655;28;20542;-62
2023/10/26 13:44:58;;;;;;;7.60;5.13;;;;;;;;;;5063798;28;20200;-62
2023/10/26 13:47:24;;;;;;;9.05;5.55;;;;;;;;;;5063375;28;20190;-62
2023/10/26 13:49:50;;;;;;;7.38;4.65;;;;;;;;;;5070881;28;20139;-63
2023/10/26 13:52:16;;;;;;;6.78;4.85;;;;;;;;;;5051360;28;20037;-62
2023/10/26 13:54:43;;;;;;;7.25;4.85;;;;;;;;;;5060053;28;20041;-62
2023/10/26 13:57:09;;;;;;;6.13;4.57;;;;;;;;;;5064777;28;20391;-62
2023/10/26 13:59:37;;;;;;;6.07;4.65;;;;;;;;;;5050690;28;20090;-63
2023/10/26 14:02:03;;;;;;;6.60;4.68;;;;;;;;;;5075679;28;20055;-62
2023/10/26 14:04:32;;;;;;;7.03;5.13;;;;;;;;;;5069778;28;20040;-62
2023/10/26 14:06:58;;;;;;;6.72;4.80;;;;;;;;;;5069860;28;20097;-62
2023/10/26 14:09:24;;;;;;;7.05;4.68;;;;;;;;;;5051949;28;20444;-61
2023/10/26 14:11:50;;;;;;;11.18;4.97;;;17.00;99.90;;;;;;5072657;28;20059;-61
2023/10/26 14:14:15;;;;;;;6.22;4.70;;;16.80;99.90;;;;;;5068911;28;20044;-62
2023/10/26 14:16:42;;;;;;;5.03;4.28;;;;;;;;;;5070802;28;20031;-64
2023/10/26 14:19:08;;;;;;;7.13;4.38;;;;;;;;;;5070846;28;20054;-62
2023/10/26 14:21:36;;;;;;;6.10;4.55;;;;;;;;;;5069700;28;20072;-62